Nearby METAR Reports

 

KPMD - Palmdale, California, USA
Distance from station: NNE 12mi, 19km
Updated: Sun, 25-Feb-2018 4:53am PST
Clear
Clear
 Wind from calm
Wind: Calm
Temperature: 30°F , -1°C
Dew Point: 16°F , -9°C
Humidity: 55%
Barometer: 30.23 inHg , 1023.7 hPa
Clouds: Clear
Visibility: 10 miles , 16 km
2018/02/25 12:53 KPMD 251253Z AUTO 00000KT 10SM CLR M01/M09 A3023 RMK AO2 SLP240 T10111094
KWJF - Lancaster/Fox, California, USA
Distance from station: N 17mi, 27km
Updated: Sun, 25-Feb-2018 4:56am PST
Clear
Clear
 Wind from SSW
Wind: SSW 3 mph , 6 km/h
Temperature: 30°F , -1°C
Dew Point: 16°F , -9°C
Humidity: 55%
Barometer: 30.24 inHg , 1024 hPa
Clouds: Clear
Visibility: 10 miles , 16 km
2018/02/25 12:56 KWJF 251256Z AUTO 21003KT 10SM CLR M01/M09 A3024 RMK AO2 SLP254 T10061089
 
KMWS - Mount Wilson, California, USA
Distance from station: SSE 18mi, 30km
Updated: Wed, 13-May-2015 6:45am PDT
NOT Current

 Wind from S
Wind: S 3 mph , 6 km/h, Gust: 5 mph , 7 km/h
Temperature: 43°F , 6°C
Dew Point: -0°F , -18°C
Humidity: 16%
2015/05/13 13:45 KMWS 131345Z 18003G04KT 06/M18 RMK SNOW DEPTH 1.00
KWHP - La / Whiteman, California, USA
Distance from station: SW 21mi, 34km
Updated: Sat, 24-Feb-2018 7:55pm PST
NOT Current
Clear
Clear
 Wind from calm
Wind: Calm
Temperature: 50°F , 10°C
Dew Point: 25°F , -4°C
Humidity: 37%
Barometer: 30.22 inHg , 1023.4 hPa
Clouds: Clear
Visibility: 10 miles , 16 km
2018/02/25 03:55 KWHP 250355Z 00000KT 10SM SKC 10/M04 A3022
 
KBUR - Burbank, California, USA
Distance from station: SSW 22mi, 35km
Updated: Sun, 25-Feb-2018 4:53am PST
Clear
Clear
 Wind from calm
Wind: Calm
Temperature: 45°F , 7°C
Dew Point: 34°F , 1°C
Humidity: 66%
Barometer: 30.16 inHg , 1021.3 hPa
Clouds: Clear
Visibility: 10 miles , 16 km
2018/02/25 12:53 KBUR 251253Z 00000KT 10SM CLR 07/01 A3016 RMK AO2 SLP208 T00670011
KVNY - Van Nuys, California, USA
Distance from station: SW 25mi, 40km
Updated: Sun, 25-Feb-2018 4:51am PST
Clear
Clear
 Wind from N
Wind: N 16 mph , 26 km/h, Gust: 22 mph , 35 km/h
Temperature: 48°F , 9°C
Wind Chill: 42°F , 6°C
Dew Point: 19°F , -7°C
Humidity: 32%
Barometer: 30.15 inHg , 1021 hPa
Clouds: Clear
Visibility: 10 miles , 16 km
2018/02/25 12:51 KVNY 251251Z AUTO 36014G19KT 10SM CLR 09/M07 A3015 RMK AO2 SLP207 T00941067
 
KEDW - Edwards Afb, California, USA
Distance from station: NNE 33mi, 53km
Updated: Sun, 25-Feb-2018 4:58am PST
Clear
Clear
 Wind from SE
Wind: SE 6 mph , 9 km/h
Temperature: 27°F , -3°C
Wind Chill: 20°F , -7°C
Dew Point: 10°F , -12°C
Humidity: 50%
Barometer: 30.22 inHg , 1023.4 hPa
Clouds: Clear
Visibility: 10 miles , 16 km
2018/02/25 12:58 KEDW 251258Z AUTO 13005KT 10SM CLR M03/M12 A3022 RMK AO2 SLP243 T10331118
KSMO - Santa Monica, California, USA
Distance from station: SSW 35mi, 57km
Updated: Sun, 25-Feb-2018 4:51am PST
Clear
Clear
 Wind from NE
Wind: NE 5 mph , 7 km/h
Temperature: 45°F , 7°C
Wind Chill: 42°F , 6°C
Dew Point: 36°F , 2°C
Humidity: 71%
Barometer: 30.18 inHg , 1022 hPa
Clouds: Clear
Visibility: 10 miles , 16 km
2018/02/25 12:51 KSMO 251251Z 04004KT 10SM CLR 07/02 A3018 RMK AO2 SLP220 T00720017
 
KLAX - Los Angeles, California, USA
Distance from station: SSW 39mi, 63km
Updated: Sun, 25-Feb-2018 4:53am PST
Clear
Clear
 Wind from NE
Wind: NE 7 mph , 11 km/h
Temperature: 46°F , 8°C
Wind Chill: 42°F , 6°C
Dew Point: 34°F , 1°C
Humidity: 62%
Barometer: 30.18 inHg , 1022 hPa
Clouds: Clear
Visibility: 10 miles , 16 km
2018/02/25 12:53 KLAX 251253Z 05006KT 10SM CLR 08/01 A3018 RMK AO2 SLP219 T00780006
KMHV - Mojave, California, USA
Distance from station: N 41mi, 66km
Updated: Sun, 25-Feb-2018 5:00am PST
Clear
Clear
 Wind from NW
Wind: NW 6 mph , 9 km/h
Temperature: 30°F , -1°C
Wind Chill: 24°F , -4°C
Dew Point: 16°F , -9°C
Humidity: 55%
Barometer: 30.22 inHg , 1023.4 hPa
Clouds: Clear
Visibility: 10 miles , 16 km
2018/02/25 13:00 KMHV 251300Z AUTO 31005KT 10SM CLR M01/M09 A3022 RMK A01
 
KFUL - Fullerton, California, USA
Distance from station: SSE 44mi, 70km
Updated: Sun, 25-Feb-2018 4:53am PST
Clear
Clear
 Wind from E
Wind: E 6 mph , 9 km/h
Temperature: 43°F , 6°C
Wind Chill: 39°F , 4°C
Dew Point: 30°F , -1°C
Humidity: 61%
Barometer: 30.17 inHg , 1021.7 hPa
Clouds: Clear
Visibility: 10 miles , 16 km
2018/02/25 12:53 KFUL 251253Z AUTO 09005KT 10SM CLR 06/M01 A3017 RMK AO2 SLP217 T00611006
KONT - Ontario, California, USA
Distance from station: SE 45mi, 72km
Updated: Sun, 25-Feb-2018 4:53am PST
Clear
Clear
 Wind from W
Wind: W 3 mph , 6 km/h
Temperature: 39°F , 4°C
Dew Point: 28°F , -2°C
Humidity: 65%
Barometer: 30.17 inHg , 1021.7 hPa
Clouds: Clear
Visibility: 10 miles , 16 km
2018/02/25 12:53 KONT 251253Z 27003KT 10SM CLR 04/M02 A3017 RMK AO2 SLP219 T00391022
 
KLGB - Long Beach, California, USA
Distance from station: S 46mi, 74km
Updated: Sun, 25-Feb-2018 4:53am PST
Clear
Clear
 Wind from calm
Wind: Calm
Temperature: 45°F , 7°C
Dew Point: 34°F , 1°C
Humidity: 66%
Barometer: 30.18 inHg , 1022 hPa
Clouds: Clear
Visibility: 10 miles , 16 km
2018/02/25 12:53 KLGB 251253Z AUTO 00000KT 10SM CLR 07/01 A3018 RMK AO2 SLP220 T00720006 $
KVCV - Victorville, California, USA
Distance from station: E 46mi, 74km
Updated: Sun, 25-Feb-2018 5:15am PST
Clear
Clear
 Wind from calm
Wind: Calm
Temperature: 28°F , -2°C
Dew Point: 12°F , -11°C
Humidity: 51%
Barometer: 30.23 inHg , 1023.7 hPa
Clouds: Clear
Visibility: 10 miles , 16 km
2018/02/25 13:15 KVCV 251315Z AUTO 00000KT 10SM CLR M02/M11 A3023 RMK AO2
 
KTSP - Tehachapi, California, USA
Distance from station: NNW 48mi, 77km
Updated: Sun, 25-Feb-2018 5:15am PST
Clear
Clear
 Wind from NNW
Wind: NNW 3 mph , 6 km/h
Temperature: 19°F , -7°C
Dew Point: 14°F , -10°C
Humidity: 79%
Barometer: 30.23 inHg , 1023.7 hPa
Clouds: Clear
Visibility: 10 miles , 16 km
2018/02/25 13:15 KTSP 251315Z AUTO 34003KT 10SM CLR M07/M10 A3023 RMK AO2